createdAt,value
2022-08-23T00:01:44.294Z,68.39
2022-08-23T00:04:19.655Z,68.93
2022-08-23T00:06:48.710Z,69.16
2022-08-23T00:09:18.996Z,68.97
2022-08-23T00:11:55.964Z,68.86
2022-08-23T00:14:28.060Z,68.70
2022-08-23T00:16:56.765Z,68.70
2022-08-23T00:19:25.766Z,68.64
2022-08-23T00:21:54.982Z,68.44
2022-08-23T00:24:24.725Z,68.77
2022-08-23T00:27:16.874Z,69.00
2022-08-23T00:29:50.854Z,68.93
2022-08-23T00:32:28.177Z,69.04
2022-08-23T00:34:56.551Z,69.29
2022-08-23T00:37:25.496Z,68.85
2022-08-23T00:39:53.564Z,68.86
2022-08-23T00:42:52.475Z,68.54
2022-08-23T00:45:43.433Z,67.20
2022-08-23T00:48:12.480Z,68.44
2022-08-23T00:50:54.210Z,68.64
2022-08-23T00:53:26.115Z,68.46
2022-08-23T00:55:57.499Z,69.41
2022-08-23T00:58:26.096Z,70.58
2022-08-23T01:00:59.500Z,71.46
2022-08-23T01:03:30.262Z,71.40
2022-08-23T01:06:12.190Z,71.69
2022-08-23T01:08:42.471Z,71.94
2022-08-23T01:11:43.121Z,71.90
2022-08-23T01:14:22.609Z,70.98
2022-08-23T01:17:05.616Z,70.94
2022-08-23T01:19:36.889Z,70.99
2022-08-23T01:22:17.144Z,70.77
2022-08-23T01:25:06.928Z,70.69
2022-08-23T01:27:36.612Z,69.99
2022-08-23T01:30:11.758Z,70.65
2022-08-23T01:32:51.935Z,70.68
2022-08-23T01:37:54.968Z,70.53
2022-08-23T01:40:23.046Z,70.27
2022-08-23T01:42:51.073Z,68.99
2022-08-23T01:45:19.166Z,70.68
2022-08-23T01:47:47.537Z,71.03
2022-08-23T01:50:15.897Z,71.18
2022-08-23T01:52:46.621Z,70.38
2022-08-23T01:55:16.235Z,71.41
2022-08-23T01:57:45.549Z,71.82
2022-08-23T02:00:20.746Z,72.07
2022-08-23T02:02:48.523Z,72.42
2022-08-23T02:05:17.412Z,71.18
2022-08-23T02:07:47.940Z,72.45
2022-08-23T02:10:18.542Z,71.50
2022-08-23T02:12:47.340Z,72.23
2022-08-23T02:15:17.503Z,72.74
2022-08-23T02:17:48.232Z,72.91
2022-08-23T02:20:17.258Z,73.04
2022-08-23T02:22:45.954Z,72.75
2022-08-23T02:25:14.588Z,72.75
2022-08-23T02:27:43.860Z,72.92
2022-08-23T02:30:13.602Z,72.90
2022-08-23T02:32:42.310Z,72.60
2022-08-23T02:35:11.999Z,72.91
2022-08-23T02:37:39.811Z,72.50
2022-08-23T02:40:08.711Z,72.43
2022-08-23T02:42:36.687Z,72.87
2022-08-23T02:45:08.444Z,72.79
2022-08-23T02:47:39.222Z,72.58
2022-08-23T02:50:13.878Z,72.17
2022-08-23T02:52:41.688Z,72.70
2022-08-23T02:55:10.236Z,72.95
2022-08-23T02:57:40.067Z,73.05
2022-08-23T03:00:11.998Z,73.05
2022-08-23T03:02:40.608Z,73.17
2022-08-23T03:05:09.825Z,73.03
2022-08-23T03:07:37.720Z,72.83
2022-08-23T03:10:07.903Z,72.75
2022-08-23T03:12:36.674Z,72.69
2022-08-23T03:15:06.374Z,72.71
2022-08-23T03:17:34.502Z,72.10
2022-08-23T03:20:03.068Z,72.58
2022-08-23T03:22:32.953Z,72.74
2022-08-23T03:25:01.549Z,72.18
2022-08-23T03:27:38.313Z,72.32
2022-08-23T03:30:17.737Z,72.55
2022-08-23T03:32:50.626Z,71.57
2022-08-23T03:35:19.217Z,71.51
2022-08-23T03:37:47.293Z,72.22
2022-08-23T03:40:17.745Z,72.85
2022-08-23T03:42:45.496Z,73.12
2022-08-23T03:45:14.957Z,72.92
2022-08-23T03:47:44.181Z,72.89
2022-08-23T03:50:13.294Z,72.82
2022-08-23T03:52:41.765Z,72.37
2022-08-23T03:55:10.466Z,71.27
2022-08-23T03:57:39.625Z,71.72
2022-08-23T04:00:10.051Z,71.66
2022-08-23T04:02:42.687Z,71.70
2022-08-23T04:05:12.539Z,71.26
2022-08-23T04:07:53.900Z,71.24
2022-08-23T04:10:23.423Z,72.25
2022-08-23T04:12:55.043Z,72.36
2022-08-23T04:15:23.257Z,72.00
2022-08-23T04:17:51.174Z,72.23
2022-08-23T04:20:19.262Z,72.98
2022-08-23T04:22:55.399Z,73.30
2022-08-23T04:25:34.958Z,73.12
2022-08-23T04:28:05.286Z,72.81
2022-08-23T04:30:33.434Z,73.13
2022-08-23T04:33:02.236Z,72.45
2022-08-23T04:35:31.249Z,72.14
2022-08-23T04:37:59.832Z,72.05
2022-08-23T04:40:46.713Z,72.19
2022-08-23T04:43:14.993Z,72.39
2022-08-23T04:45:42.769Z,72.13
2022-08-23T04:48:17.346Z,71.75
2022-08-23T04:50:48.135Z,71.66
2022-08-23T04:53:19.492Z,71.53
2022-08-23T04:56:02.177Z,71.52
2022-08-23T04:58:31.559Z,70.44
2022-08-23T05:01:01.745Z,70.74
2022-08-23T05:03:32.044Z,71.06
2022-08-23T05:06:01.269Z,71.35
2022-08-23T05:08:38.144Z,71.12
2022-08-23T05:11:08.226Z,70.39
2022-08-23T05:13:38.793Z,69.89
2022-08-23T05:16:08.206Z,69.67
2022-08-23T05:18:40.746Z,69.74
2022-08-23T05:21:09.367Z,69.38
2022-08-23T05:23:37.241Z,68.66
2022-08-23T05:26:11.874Z,68.20
2022-08-23T05:28:44.856Z,68.01
2022-08-23T05:31:17.685Z,68.43
2022-08-23T05:33:52.590Z,68.33
2022-08-23T05:36:27.460Z,68.02
2022-08-23T05:38:55.341Z,67.53
2022-08-23T05:41:25.925Z,67.04
2022-08-23T05:44:07.424Z,66.75
2022-08-23T05:46:36.523Z,66.71
2022-08-23T05:49:22.986Z,66.71
2022-08-23T05:51:51.960Z,66.14
2022-08-23T05:54:21.012Z,66.09
2022-08-23T05:57:00.517Z,66.15
2022-08-23T05:59:28.460Z,66.31
2022-08-23T06:01:57.434Z,65.19
2022-08-23T06:04:25.110Z,65.17
2022-08-23T06:06:56.299Z,65.57
2022-08-23T06:09:24.616Z,65.21
2022-08-23T06:11:52.885Z,65.37
2022-08-23T06:14:21.705Z,65.59
2022-08-23T06:16:54.952Z,65.39
2022-08-23T06:19:25.515Z,65.42
2022-08-23T06:22:11.860Z,65.48
2022-08-23T06:24:42.908Z,65.45
2022-08-23T06:27:17.276Z,65.22
2022-08-23T06:29:46.171Z,65.32
2022-08-23T06:32:40.826Z,65.28
2022-08-23T06:35:40.044Z,65.07
2022-08-23T06:38:16.301Z,64.71
2022-08-23T06:41:04.441Z,64.59
2022-08-23T06:43:42.853Z,64.26
2022-08-23T06:46:30.337Z,64.62
2022-08-23T06:48:59.573Z,64.84
2022-08-23T06:51:40.859Z,64.32
2022-08-23T06:54:23.540Z,64.27
2022-08-23T06:57:14.822Z,63.31
2022-08-23T06:59:55.538Z,62.64
2022-08-23T07:02:42.592Z,62.10
2022-08-23T07:05:29.542Z,60.57
2022-08-23T07:08:09.897Z,59.27
2022-08-23T07:10:38.046Z,60.35
2022-08-23T07:13:05.921Z,62.62
2022-08-23T07:15:33.830Z,63.23
2022-08-23T07:18:02.707Z,61.85
2022-08-23T07:20:31.834Z,61.87
2022-08-23T07:23:01.484Z,61.05
2022-08-23T07:25:29.534Z,59.25
2022-08-23T07:28:02.432Z,59.85
2022-08-23T07:30:30.544Z,60.88
2022-08-23T07:32:58.758Z,62.42
2022-08-23T07:35:33.005Z,62.76
2022-08-23T07:38:02.757Z,62.98
2022-08-23T07:40:39.077Z,62.22
2022-08-23T07:43:08.645Z,60.65
2022-08-23T07:45:37.725Z,58.66
2022-08-23T07:48:06.377Z,58.73
2022-08-23T07:50:54.804Z,59.19
2022-08-23T07:53:37.532Z,60.98
2022-08-23T07:56:08.305Z,60.32
2022-08-23T07:58:54.126Z,61.60
2022-08-23T08:01:48.281Z,63.33
2022-08-23T08:04:16.848Z,62.49
2022-08-23T08:07:04.783Z,60.83
2022-08-23T08:09:39.709Z,60.69
2022-08-23T08:12:08.935Z,60.09
2022-08-23T08:14:38.125Z,60.35
2022-08-23T08:17:06.933Z,61.49
2022-08-23T08:19:53.535Z,63.50
2022-08-23T08:22:36.524Z,64.01
2022-08-23T08:25:35.644Z,63.11
2022-08-23T08:28:05.846Z,62.24
2022-08-23T08:30:33.902Z,61.76
2022-08-23T08:33:02.935Z,60.89
2022-08-23T08:35:31.726Z,59.12
2022-08-23T08:37:59.829Z,58.08
2022-08-23T08:40:31.577Z,58.18
2022-08-23T08:43:44.720Z,59.04
2022-08-23T08:46:25.922Z,59.33
2022-08-23T08:48:58.026Z,60.25
2022-08-23T08:51:37.963Z,60.82
2022-08-23T08:54:08.466Z,60.70
2022-08-23T08:56:42.492Z,61.08
2022-08-23T09:00:15.486Z,60.61
2022-08-23T09:02:45.266Z,60.46
2022-08-23T09:05:19.767Z,60.33
2022-08-23T09:08:01.002Z,59.60
2022-08-23T09:10:32.451Z,58.69
2022-08-23T09:13:35.946Z,58.24
2022-08-23T09:16:15.991Z,58.65
2022-08-23T09:18:44.805Z,57.67
2022-08-23T09:21:15.076Z,56.70
2022-08-23T09:23:45.970Z,57.76
2022-08-23T09:26:30.581Z,57.25
2022-08-23T09:29:16.812Z,56.96
2022-08-23T09:31:50.772Z,57.76
2022-08-23T09:34:42.489Z,58.48
2022-08-23T09:37:14.691Z,56.15
2022-08-23T09:39:47.328Z,57.34
2022-08-23T09:43:03.736Z,55.98
2022-08-23T09:45:35.867Z,54.44
2022-08-23T09:48:07.004Z,53.13
2022-08-23T09:50:42.285Z,54.63
2022-08-23T09:53:12.912Z,53.43
2022-08-23T09:55:49.193Z,54.40
2022-08-23T09:58:25.305Z,52.00
2022-08-23T10:01:19.796Z,52.12
2022-08-23T10:04:14.744Z,54.36
2022-08-23T10:06:46.264Z,53.28
2022-08-23T10:09:30.688Z,52.32
2022-08-23T10:12:00.573Z,52.45
2022-08-23T10:14:31.178Z,52.27
2022-08-23T10:17:03.212Z,53.00
2022-08-23T10:19:34.890Z,53.38
2022-08-23T10:22:20.208Z,53.72
2022-08-23T10:25:18.913Z,51.45
2022-08-23T10:28:25.588Z,50.16
2022-08-23T10:31:13.542Z,48.00
2022-08-23T10:33:57.110Z,44.82
2022-08-23T10:36:31.849Z,45.09
2022-08-23T10:39:21.420Z,41.68
2022-08-23T10:42:11.585Z,36.08
2022-08-23T10:44:46.407Z,35.08
2022-08-23T10:47:14.282Z,33.77
2022-08-23T10:49:43.590Z,34.81
2022-08-23T10:52:17.061Z,33.52
2022-08-23T10:55:05.538Z,32.90
2022-08-23T10:57:39.914Z,28.95
2022-08-23T11:00:13.202Z,32.42
2022-08-23T11:02:50.697Z,29.57
2022-08-23T11:05:31.775Z,31.09
2022-08-23T11:08:11.025Z,30.21
2022-08-23T11:10:39.323Z,31.48
2022-08-23T11:13:13.603Z,31.74
2022-08-23T11:16:01.265Z,32.76
2022-08-23T11:18:45.390Z,31.47
2022-08-23T11:21:17.997Z,33.06
2022-08-23T11:23:58.507Z,32.92
2022-08-23T11:26:27.767Z,31.34
2022-08-23T11:29:22.066Z,32.34
2022-08-23T11:32:06.682Z,33.09
2022-08-23T11:34:42.657Z,33.56
2022-08-23T11:37:19.856Z,34.67
2022-08-23T11:39:58.547Z,35.04
2022-08-23T11:42:38.620Z,35.92
2022-08-23T11:45:52.038Z,36.21
2022-08-23T11:48:36.840Z,36.44
2022-08-23T11:51:42.394Z,37.22
2022-08-23T11:54:31.970Z,38.04
2022-08-23T11:57:10.012Z,39.07
2022-08-23T11:59:59.739Z,39.12
2022-08-23T12:02:48.113Z,39.16
2022-08-23T12:05:20.272Z,39.38
2022-08-23T12:07:55.595Z,39.65
2022-08-23T12:10:46.453Z,40.33
2022-08-23T12:13:20.603Z,41.16
2022-08-23T12:16:07.569Z,40.88
2022-08-23T12:18:52.855Z,41.35
2022-08-23T12:21:29.448Z,42.63
2022-08-23T12:24:02.782Z,43.08
2022-08-23T12:26:42.614Z,43.84
2022-08-23T12:29:33.930Z,44.45
2022-08-23T12:32:08.046Z,44.59
2022-08-23T12:35:04.645Z,45.25
2022-08-23T12:37:54.474Z,45.75
2022-08-23T12:40:29.704Z,47.01
2022-08-23T12:43:07.134Z,46.39
2022-08-23T12:45:44.165Z,45.65
2022-08-23T12:48:14.921Z,45.11
2022-08-23T12:50:45.655Z,45.22
2022-08-23T12:53:16.739Z,46.17
2022-08-23T12:55:49.588Z,46.75
2022-08-23T12:58:31.531Z,45.58
2022-08-23T13:01:04.845Z,45.30
2022-08-23T13:03:42.019Z,44.92
2022-08-23T13:06:13.539Z,45.17
2022-08-23T13:08:44.810Z,45.29
2022-08-23T13:11:14.710Z,45.43
2022-08-23T13:13:44.129Z,45.93
2022-08-23T13:16:40.343Z,45.01
2022-08-23T13:19:22.347Z,45.64
2022-08-23T13:22:13.233Z,45.65
2022-08-23T13:24:44.065Z,44.59
2022-08-23T13:27:38.521Z,44.63
2022-08-23T13:30:09.588Z,44.04
2022-08-23T13:32:45.355Z,44.37
2022-08-23T13:35:43.239Z,44.73
2022-08-23T13:38:21.314Z,45.03
2022-08-23T13:41:12.553Z,44.63
2022-08-23T13:43:52.492Z,45.13
2022-08-23T13:46:23.376Z,45.59
2022-08-23T13:48:58.398Z,45.89
2022-08-23T13:51:37.043Z,46.15
2022-08-23T13:54:11.902Z,46.49
2022-08-23T13:56:50.157Z,47.10
2022-08-23T13:59:34.667Z,47.34
2022-08-23T14:02:14.413Z,47.68
2022-08-23T14:04:44.346Z,48.22
2022-08-23T14:07:12.628Z,49.31
2022-08-23T14:09:41.147Z,48.46
2022-08-23T14:12:22.191Z,50.03
2022-08-23T14:14:50.619Z,50.16
2022-08-23T14:17:20.491Z,50.23
2022-08-23T14:22:38.787Z,50.25
2022-08-23T14:25:07.860Z,50.49
2022-08-23T14:27:35.886Z,51.25
2022-08-23T14:30:05.809Z,53.59
2022-08-23T14:32:33.896Z,54.36
2022-08-23T14:35:01.737Z,54.44
2022-08-23T14:40:17.724Z,57.49
2022-08-23T14:42:46.824Z,56.48
2022-08-23T14:45:17.235Z,56.88
2022-08-23T14:47:45.140Z,58.14
2022-08-23T14:50:14.500Z,58.90
2022-08-23T14:52:46.319Z,58.90
2022-08-23T14:55:14.607Z,58.70
2022-08-23T14:57:42.804Z,59.57
2022-08-23T15:00:14.909Z,59.68
2022-08-23T15:02:45.683Z,59.17
2022-08-23T15:05:14.549Z,58.88
2022-08-23T15:07:42.631Z,59.22
2022-08-23T15:10:49.644Z,58.74
2022-08-23T15:13:19.491Z,58.80
2022-08-23T15:15:51.152Z,59.60
2022-08-23T15:18:19.689Z,59.85
2022-08-23T15:20:49.251Z,61.21
2022-08-23T15:23:21.683Z,60.62
2022-08-23T15:25:50.312Z,58.72
2022-08-23T15:28:20.626Z,59.06
2022-08-23T15:30:49.633Z,59.88
2022-08-23T15:33:21.330Z,60.48
2022-08-23T15:35:52.824Z,59.73
2022-08-23T15:38:23.330Z,60.06
2022-08-23T15:40:52.692Z,60.51
2022-08-23T15:43:21.741Z,60.49
2022-08-23T15:45:49.762Z,59.63
2022-08-23T15:48:30.882Z,58.76
2022-08-23T15:50:59.781Z,60.85
2022-08-23T15:53:27.701Z,62.21
2022-08-23T15:55:55.681Z,62.57
2022-08-23T15:58:26.691Z,59.62
2022-08-23T16:00:55.542Z,59.74
2022-08-23T16:03:23.513Z,60.63
2022-08-23T16:05:53.899Z,60.86
2022-08-23T16:08:24.883Z,60.72
2022-08-23T16:10:54.244Z,61.41
2022-08-23T16:13:23.095Z,60.83
2022-08-23T16:15:51.106Z,60.83
2022-08-23T16:18:19.309Z,61.15
2022-08-23T16:20:48.049Z,60.92
2022-08-23T16:23:16.159Z,61.51
2022-08-23T16:25:44.880Z,62.45
2022-08-23T16:28:12.740Z,62.53
2022-08-23T16:30:40.634Z,62.81
2022-08-23T16:33:08.555Z,62.49
2022-08-23T16:35:36.339Z,60.96
2022-08-23T16:38:04.239Z,60.18
2022-08-23T16:40:32.119Z,59.65
2022-08-23T16:43:00.750Z,61.57
2022-08-23T16:45:28.771Z,63.38
2022-08-23T16:47:56.816Z,63.40
2022-08-23T16:50:25.571Z,62.52
2022-08-23T16:52:53.502Z,62.57
2022-08-23T16:55:21.388Z,62.88
2022-08-23T16:57:49.192Z,61.80
2022-08-23T17:00:17.358Z,62.29
2022-08-23T17:02:45.517Z,63.41
2022-08-23T17:05:16.272Z,63.45
2022-08-23T17:07:44.250Z,62.46
2022-08-23T17:10:14.096Z,62.33
2022-08-23T17:12:47.169Z,63.13
2022-08-23T17:15:19.815Z,63.06
2022-08-23T17:17:49.159Z,62.64
2022-08-23T17:20:19.640Z,61.97
2022-08-23T17:22:48.019Z,61.62
2022-08-23T17:25:17.020Z,62.03
2022-08-23T17:27:46.479Z,62.25
2022-08-23T17:30:17.245Z,61.33
2022-08-23T17:32:47.806Z,61.58
2022-08-23T17:35:22.255Z,61.50
2022-08-23T17:37:50.026Z,61.01
2022-08-23T17:40:25.126Z,61.49
2022-08-23T17:42:53.210Z,61.18
2022-08-23T17:45:21.751Z,61.62
2022-08-23T17:47:49.952Z,60.99
2022-08-23T17:50:18.856Z,61.14
2022-08-23T17:52:46.673Z,61.30
2022-08-23T17:55:18.361Z,61.85
2022-08-23T17:57:48.512Z,62.81
2022-08-23T18:00:19.086Z,64.33
2022-08-23T18:02:47.459Z,63.36
2022-08-23T18:05:15.861Z,64.41
2022-08-23T18:07:44.859Z,64.69
2022-08-23T18:10:12.757Z,64.44
2022-08-23T18:12:40.776Z,64.64
2022-08-23T18:15:09.526Z,64.25
2022-08-23T18:17:38.992Z,64.92
2022-08-23T18:20:09.907Z,65.30
2022-08-23T18:22:38.503Z,63.93
2022-08-23T18:25:09.721Z,64.76
2022-08-23T18:27:56.032Z,65.81
2022-08-23T18:30:24.122Z,64.94
2022-08-23T18:32:52.072Z,64.57
2022-08-23T18:35:20.710Z,65.30
2022-08-23T18:37:48.461Z,66.48
2022-08-23T18:40:16.385Z,66.67
2022-08-23T18:42:45.189Z,65.14
2022-08-23T18:45:14.135Z,65.73
2022-08-23T18:47:42.092Z,66.01
2022-08-23T18:50:11.589Z,65.43
2022-08-23T18:52:39.489Z,65.50
2022-08-23T18:55:08.039Z,65.48
2022-08-23T18:57:35.866Z,65.81
2022-08-23T19:00:05.391Z,65.76
2022-08-23T19:02:34.062Z,66.03
2022-08-23T19:05:03.222Z,65.99
2022-08-23T19:07:32.432Z,66.47
2022-08-23T19:10:01.368Z,66.52
2022-08-23T19:12:29.391Z,66.29
2022-08-23T19:14:57.379Z,66.29
2022-08-23T19:17:25.236Z,67.04
2022-08-23T19:19:53.214Z,67.28
2022-08-23T19:22:20.987Z,67.46
2022-08-23T19:24:48.969Z,67.56
2022-08-23T19:27:16.904Z,67.39
2022-08-23T19:29:44.957Z,67.43
2022-08-23T19:32:14.056Z,67.23
2022-08-23T19:34:42.350Z,67.52
2022-08-23T19:37:18.581Z,67.79
2022-08-23T19:39:52.094Z,67.65
2022-08-23T19:42:20.745Z,67.70
2022-08-23T19:44:48.635Z,67.83
2022-08-23T19:47:17.670Z,67.82
2022-08-23T19:49:48.616Z,67.54
2022-08-23T19:52:16.672Z,67.90
2022-08-23T19:54:44.603Z,67.82
2022-08-23T19:57:12.516Z,67.89
2022-08-23T19:59:40.628Z,67.69
2022-08-23T20:02:10.008Z,67.51
2022-08-23T20:04:37.989Z,67.77
2022-08-23T20:07:06.760Z,68.07
2022-08-23T20:09:35.082Z,67.78
2022-08-23T20:12:03.727Z,67.96
2022-08-23T20:14:33.207Z,68.03
2022-08-23T20:17:03.417Z,66.86
2022-08-23T20:19:31.509Z,65.78
2022-08-23T20:22:19.512Z,65.98
2022-08-23T20:24:51.969Z,65.92
2022-08-23T20:27:28.311Z,66.28
2022-08-23T20:30:01.794Z,66.55
2022-08-23T20:32:31.380Z,66.17
2022-08-23T20:35:00.732Z,66.04
2022-08-23T20:37:29.696Z,66.25
2022-08-23T20:39:57.840Z,66.09
2022-08-23T20:42:26.223Z,66.26
2022-08-23T20:44:54.064Z,66.18
2022-08-23T20:47:22.577Z,66.30
2022-08-23T20:49:50.483Z,66.61
2022-08-23T20:52:18.403Z,66.49
2022-08-23T20:54:46.448Z,66.50
2022-08-23T20:57:14.460Z,66.46
2022-08-23T20:59:44.759Z,66.22
2022-08-23T21:02:13.624Z,66.25
2022-08-23T21:04:41.582Z,66.52
2022-08-23T21:07:09.932Z,66.98
2022-08-23T21:09:37.898Z,66.59
2022-08-23T21:12:06.121Z,66.70
2022-08-23T21:14:34.608Z,66.77
2022-08-23T21:17:02.461Z,66.82
2022-08-23T21:19:31.485Z,66.55
2022-08-23T21:21:59.946Z,67.10
2022-08-23T21:24:28.058Z,67.64
2022-08-23T21:26:55.972Z,67.96
2022-08-23T21:29:24.151Z,67.52
2022-08-23T21:31:52.004Z,67.46
2022-08-23T21:34:19.920Z,67.38
2022-08-23T21:36:47.922Z,67.53
2022-08-23T21:39:15.858Z,67.54
2022-08-23T21:41:45.095Z,67.68
2022-08-23T21:44:14.923Z,67.67
2022-08-23T21:46:43.619Z,67.65
2022-08-23T21:49:12.718Z,67.54
2022-08-23T21:51:42.108Z,66.63
2022-08-23T21:54:11.322Z,66.95
2022-08-23T21:56:39.553Z,67.40
2022-08-23T21:59:10.058Z,67.51
2022-08-23T22:01:38.808Z,67.55
2022-08-23T22:04:09.026Z,67.31
2022-08-23T22:06:38.186Z,67.74
2022-08-23T22:09:08.430Z,67.37
2022-08-23T22:11:40.468Z,67.42
2022-08-23T22:14:14.444Z,68.20
2022-08-23T22:16:44.143Z,68.41
2022-08-23T22:19:13.345Z,67.78
2022-08-23T22:21:41.998Z,67.40
2022-08-23T22:24:10.831Z,67.80
2022-08-23T22:26:40.042Z,68.53
2022-08-23T22:29:08.023Z,68.52
2022-08-23T22:31:36.433Z,68.23
2022-08-23T22:34:05.026Z,68.97
2022-08-23T22:36:33.282Z,69.07
2022-08-23T22:39:01.095Z,69.16
2022-08-23T22:41:31.896Z,68.88
2022-08-23T22:44:01.205Z,68.63
2022-08-23T22:46:29.524Z,67.93
2022-08-23T22:48:57.583Z,67.04
2022-08-23T22:51:29.421Z,68.19
2022-08-23T22:54:00.306Z,68.99
2022-08-23T22:56:35.929Z,68.69
2022-08-23T22:59:04.526Z,68.80
2022-08-23T23:01:37.669Z,69.30
2022-08-23T23:04:08.342Z,69.68
2022-08-23T23:06:36.811Z,69.93
2022-08-23T23:09:07.446Z,69.76
2022-08-23T23:11:35.865Z,69.50
2022-08-23T23:14:05.556Z,70.18
2022-08-23T23:16:33.692Z,70.45
2022-08-23T23:19:20.741Z,70.59
2022-08-23T23:21:52.056Z,70.27
2022-08-23T23:24:31.854Z,70.08
2022-08-23T23:27:01.637Z,70.13
2022-08-23T23:29:30.939Z,70.31
2022-08-23T23:31:58.882Z,70.39
2022-08-23T23:34:28.297Z,70.38
2022-08-23T23:36:57.426Z,70.65
2022-08-23T23:39:27.556Z,70.54
2022-08-23T23:41:56.263Z,70.45
2022-08-23T23:44:31.110Z,70.33
2022-08-23T23:47:02.906Z,70.19
2022-08-23T23:49:33.212Z,70.38
2022-08-23T23:52:04.816Z,70.31
2022-08-23T23:54:35.596Z,69.98
2022-08-23T23:57:05.603Z,70.16
2022-08-23T23:59:33.917Z,70.25
